Time;durP1;ratioP1;P1;durP2;ratioP2;P2;SDS_P1;SDS_P2;PMS_P1;PMS_P2;Temp;Humidity;BMP_temperature;BMP_pressure;BME280_temperature;BME280_humidity;BME280_pressure;Samples;Min_cycle;Max_cycle;Signal;HPM_P1;HPM_P2
2021/12/13 00:01:37;;;;;;;54.33;19.85;;;10.10;99.90;;;;;;5041520;28;20060;-87
2021/12/13 00:04:21;;;;;;;62.97;20.55;;;10.10;99.90;;;;;;5037760;28;20037;-85
2021/12/13 00:06:54;;;;;;;63.58;20.02;;;10.10;99.90;;;;;;5050823;28;20041;-86
2021/12/13 00:09:23;;;;;;;49.65;18.38;;;10.10;99.90;;;;;;5046770;28;20444;-84
2021/12/13 00:11:54;;;;;;;60.92;20.65;;;10.10;99.90;;;;;;5040207;28;20049;-86
2021/12/13 00:14:44;;;;;;;59.00;19.75;;;10.10;99.90;;;;;;5042558;28;20092;-86
2021/12/13 00:17:16;;;;;;;75.10;22.60;;;10.10;99.90;;;;;;5033752;28;20075;-87
2021/12/13 00:19:45;;;;;;;60.25;20.77;;;10.10;99.90;;;;;;5062746;28;20040;-86
2021/12/13 00:22:14;;;;;;;66.32;21.25;;;10.10;99.90;;;;;;5040429;28;20084;-86
2021/12/13 00:24:44;;;;;;;66.10;22.25;;;10.00;99.90;;;;;;5039742;28;20037;-86
2021/12/13 00:27:27;;;;;;;63.78;22.35;;;10.10;99.90;;;;;;5036300;28;20511;-86
2021/12/13 00:29:59;;;;;;;60.63;21.60;;;10.00;99.90;;;;;;5037332;28;20060;-86
2021/12/13 00:33:02;;;;;;;61.20;23.27;;;10.10;99.90;;;;;;5047044;28;20396;-86
2021/12/13 00:35:37;;;;;;;58.08;22.38;;;10.10;99.90;;;;;;5049591;28;20488;-87
2021/12/13 00:38:05;;;;;;;62.47;22.45;;;10.10;99.90;;;;;;5036984;28;20045;-86
2021/12/13 00:40:40;;;;;;;73.95;26.17;;;10.10;99.90;;;;;;5038250;28;20057;-86
2021/12/13 00:43:11;;;;;;;73.85;25.40;;;10.10;99.90;;;;;;5037023;28;20046;-86
2021/12/13 00:45:47;;;;;;;60.28;23.27;;;10.10;99.90;;;;;;5048631;28;20049;-87
2021/12/13 00:48:13;;;;;;;77.88;25.83;;;10.10;99.90;;;;;;5042087;28;20112;-87
2021/12/13 00:50:51;;;;;;;75.13;25.13;;;10.00;99.90;;;;;;5047903;28;20131;-87
2021/12/13 00:53:20;;;;;;;81.13;25.55;;;10.10;99.90;;;;;;5036761;28;20119;-86
2021/12/13 00:55:48;;;;;;;81.88;24.58;;;10.10;99.90;;;;;;5034852;28;20045;-87
2021/12/13 00:58:17;;;;;;;77.90;25.75;;;10.10;99.90;;;;;;5044956;28;20424;-87
2021/12/13 01:01:00;;;;;;;84.80;27.45;;;10.10;99.90;;;;;;5030780;28;20041;-88
2021/12/13 01:03:35;;;;;;;96.75;28.63;;;10.10;99.90;;;;;;5035478;28;20049;-87
2021/12/13 01:06:58;;;;;;;111.93;32.35;;;10.10;99.90;;;;;;5036853;28;20057;-87
2021/12/13 01:10:08;;;;;;;117.45;31.17;;;10.10;99.90;;;;;;5032744;28;20045;-87
2021/12/13 01:12:35;;;;;;;122.40;32.45;;;10.10;99.90;;;;;;5034103;28;20056;-86
2021/12/13 01:15:15;;;;;;;127.38;33.25;;;10.10;99.90;;;;;;5031657;28;20384;-87
2021/12/13 01:17:54;;;;;;;121.55;33.80;;;10.10;99.90;;;;;;5041396;28;20128;-87
2021/12/13 01:20:44;;;;;;;143.63;35.53;;;10.10;99.90;;;;;;5037120;28;20144;-87
2021/12/13 01:23:28;;;;;;;134.52;33.88;;;10.10;99.90;;;;;;5060966;28;20049;-87
2021/12/13 01:26:13;;;;;;;169.00;37.75;;;10.10;99.90;;;;;;5046076;28;20059;-87
2021/12/13 01:28:44;;;;;;;171.63;37.90;;;10.10;99.90;;;;;;5063573;28;20544;-87
2021/12/13 01:31:24;;;;;;;214.88;41.67;;;10.10;99.90;;;;;;5040595;28;20048;-88
2021/12/13 01:33:51;;;;;;;152.82;37.08;;;10.10;99.90;;;;;;5055893;28;20400;-87
2021/12/13 01:36:24;;;;;;;155.07;35.35;;;10.10;99.90;;;;;;5040056;28;20037;-87
2021/12/13 01:39:01;;;;;;;142.85;35.05;;;10.10;99.90;;;;;;5049380;28;20049;-88
2021/12/13 01:41:38;;;;;;;158.75;36.00;;;10.10;99.90;;;;;;5041182;28;20503;-88
2021/12/13 01:44:29;;;;;;;148.98;34.67;;;10.10;99.90;;;;;;5045536;28;20045;-87
2021/12/13 01:47:06;;;;;;;101.90;27.15;;;10.10;99.90;;;;;;5046789;28;20191;-88
2021/12/13 01:49:38;;;;;;;104.60;28.73;;;10.10;99.90;;;;;;5046193;28;20079;-88
2021/12/13 01:52:20;;;;;;;109.22;28.55;;;10.10;99.90;;;;;;5046943;28;20045;-87
2021/12/13 01:54:46;;;;;;;109.53;27.75;;;10.10;99.90;;;;;;5061636;28;20052;-87
2021/12/13 02:00:07;;;;;;;80.97;23.33;;;10.10;99.90;;;;;;5033272;28;20045;-87
2021/12/13 02:02:38;;;;;;;69.35;23.17;;;10.10;99.90;;;;;;5055576;28;20175;-88
2021/12/13 02:05:16;;;;;;;85.45;23.45;;;10.10;99.90;;;;;;5042479;28;20037;-87
2021/12/13 02:07:53;;;;;;;72.57;23.35;;;10.10;99.90;;;;;;5033292;28;20047;-88
2021/12/13 02:10:25;;;;;;;82.93;23.55;;;10.10;99.90;;;;;;5051154;28;20057;-88
2021/12/13 02:12:57;;;;;;;70.68;23.27;;;10.10;99.90;;;;;;5065874;28;20495;-88
2021/12/13 02:18:12;;;;;;;59.33;20.77;;;10.10;99.90;;;;;;5047841;28;20127;-88
2021/12/13 02:20:42;;;;;;;69.10;23.30;;;10.10;99.90;;;;;;5042131;28;20060;-88
2021/12/13 02:23:08;;;;;;;46.33;19.95;;;10.10;99.90;;;;;;5048320;28;20355;-88
2021/12/13 02:25:39;;;;;;;46.80;19.88;;;10.10;99.90;;;;;;5036942;28;20041;-88
2021/12/13 02:28:08;;;;;;;49.05;19.58;;;10.10;99.90;;;;;;5044651;28;20052;-87
2021/12/13 02:30:48;;;;;;;51.35;20.25;;;10.10;99.90;;;;;;5046899;28;20077;-88
2021/12/13 02:33:24;;;;;;;43.70;19.45;;;10.10;99.90;;;;;;5047127;28;20077;-87
2021/12/13 02:36:03;;;;;;;50.42;20.17;;;10.10;99.90;;;;;;5033527;28;20125;-87
2021/12/13 02:38:29;;;;;;;49.33;21.50;;;10.10;99.90;;;;;;5042252;28;20562;-88
2021/12/13 02:40:55;;;;;;;48.05;22.98;;;10.10;99.90;;;;;;5030899;28;20046;-88
2021/12/13 02:43:26;;;;;;;66.15;27.23;;;10.10;99.90;;;;;;5032232;28;20056;-87
2021/12/13 02:45:55;;;;;;;52.95;25.00;;;10.10;99.90;;;;;;5054279;28;20128;-88
2021/12/13 02:48:32;;;;;;;63.17;26.75;;;10.10;99.90;;;;;;5031447;28;20128;-88
2021/12/13 02:51:16;;;;;;;63.20;28.33;;;10.10;99.90;;;;;;5032779;28;20045;-88
2021/12/13 02:53:56;;;;;;;58.22;26.40;;;10.00;99.90;;;;;;5044542;28;20431;-88
2021/12/13 02:56:27;;;;;;;83.50;30.48;;;10.10;99.90;;;;;;5038694;28;20037;-88
2021/12/13 02:58:54;;;;;;;66.20;28.15;;;10.10;99.90;;;;;;5032259;28;20041;-88
2021/12/13 03:01:31;;;;;;;61.45;27.92;;;10.10;99.90;;;;;;5033853;28;20103;-88
2021/12/13 03:04:04;;;;;;;55.00;25.55;;;10.10;99.90;;;;;;5034139;28;20401;-88
2021/12/13 03:06:35;;;;;;;54.10;24.25;;;10.00;99.90;;;;;;5062062;28;20076;-88
2021/12/13 03:09:12;;;;;;;62.97;24.90;;;10.10;99.90;;;;;;5051072;28;20064;-88
2021/12/13 03:11:39;;;;;;;50.95;22.42;;;10.10;99.90;;;;;;5043284;28;20053;-88
2021/12/13 03:14:30;;;;;;;51.83;22.40;;;10.10;99.90;;;;;;5060532;28;20049;-88
2021/12/13 03:17:03;;;;;;;55.38;22.27;;;10.10;99.90;;;;;;5044173;28;20056;-88
2021/12/13 03:19:52;;;;;;;52.17;22.98;;;10.30;99.90;;;;;;5031793;28;20038;-88
2021/12/13 03:22:20;;;;;;;53.45;20.23;;;10.00;99.90;;;;;;5038828;28;20053;-88
2021/12/13 03:25:07;;;;;;;49.22;20.95;;;10.00;99.90;;;;;;5032004;28;20072;-87
2021/12/13 03:27:51;;;;;;;40.50;18.60;;;10.00;99.90;;;;;;5048038;28;20088;-88
2021/12/13 03:30:30;;;;;;;36.85;17.63;;;10.00;99.90;;;;;;5043298;28;20092;-88
2021/12/13 03:33:07;;;;;;;45.60;18.05;;;10.00;99.90;;;;;;5039217;28;20050;-89
2021/12/13 03:35:49;;;;;;;38.30;16.75;;;9.90;99.90;;;;;;5050655;28;20033;-88
2021/12/13 03:38:26;;;;;;;33.35;15.07;;;9.90;99.90;;;;;;5038927;28;20041;-88
2021/12/13 03:40:56;;;;;;;41.28;16.80;;;9.90;99.90;;;;;;5039080;28;20080;-88
2021/12/13 03:43:34;;;;;;;38.15;14.25;;;9.90;99.90;;;;;;5042285;28;20531;-88
2021/12/13 03:46:04;;;;;;;39.53;15.75;;;10.30;99.90;;;;;;5050733;28;20089;-88
2021/12/13 03:48:30;;;;;;;28.77;13.55;;;9.90;99.90;;;;;;5044873;28;20088;-88
2021/12/13 03:51:01;;;;;;;34.05;14.25;;;9.90;99.90;;;;;;5042366;28;20041;-88
2021/12/13 03:53:29;;;;;;;33.15;12.90;;;9.90;99.90;;;;;;5053955;28;20037;-89
2021/12/13 03:56:02;;;;;;;28.73;13.38;;;9.90;99.90;;;;;;5047148;28;20040;-88
2021/12/13 03:58:33;;;;;;;28.58;12.88;;;9.90;99.90;;;;;;5044050;28;20044;-87
2021/12/13 04:01:07;;;;;;;30.35;12.05;;;9.90;99.90;;;;;;5040743;28;20048;-88
2021/12/13 04:03:34;;;;;;;30.08;11.85;;;9.90;99.90;;;;;;5040438;28;20040;-88
2021/12/13 04:06:00;;;;;;;31.10;11.35;;;9.80;99.90;;;;;;5051713;28;20124;-88
2021/12/13 04:08:27;;;;;;;27.10;11.15;;;9.80;99.90;;;;;;5053716;28;20167;-88
2021/12/13 04:10:59;;;;;;;25.20;11.43;;;9.80;99.90;;;;;;5047461;28;20061;-87
2021/12/13 04:13:29;;;;;;;23.17;9.85;;;9.80;99.90;;;;;;5052201;28;20037;-87
2021/12/13 04:16:30;;;;;;;18.88;9.73;;;9.80;99.90;;;;;;5044522;28;20045;-88
2021/12/13 04:19:08;;;;;;;25.85;9.80;;;9.80;99.90;;;;;;5031894;28;20049;-87
2021/12/13 04:21:55;;;;;;;20.88;9.25;;;9.80;99.90;;;;;;5037398;28;20038;-87
2021/12/13 04:24:30;;;;;;;24.02;8.55;;;9.80;99.90;;;;;;5030983;28;20106;-87
2021/12/13 04:27:04;;;;;;;20.75;8.32;;;9.80;99.90;;;;;;5030746;28;20392;-88
2021/12/13 04:29:33;;;;;;;20.50;7.57;;;9.80;99.90;;;;;;5039741;28;20128;-88
2021/12/13 04:32:12;;;;;;;20.80;8.05;;;9.80;99.90;;;;;;5040388;28;20075;-87
2021/12/13 04:34:41;;;;;;;19.02;7.35;;;9.70;99.90;;;;;;5049878;28;20049;-89
2021/12/13 04:37:12;;;;;;;18.42;7.90;;;9.70;99.90;;;;;;5040646;28;20120;-88
2021/12/13 04:39:40;;;;;;;20.23;7.30;;;9.60;99.90;;;;;;5039348;28;20048;-88
2021/12/13 04:42:10;;;;;;;16.92;7.10;;;9.60;99.90;;;;;;5048759;28;20048;-88
2021/12/13 04:44:50;;;;;;;18.60;7.13;;;9.60;99.90;;;;;;5040298;28;20081;-87
2021/12/13 04:47:26;;;;;;;17.25;7.70;;;9.60;99.90;;;;;;5032849;28;20049;-88
2021/12/13 04:50:08;;;;;;;17.55;8.82;;;9.50;99.90;;;;;;5030204;28;20524;-88
2021/12/13 04:52:34;;;;;;;16.50;7.22;;;9.60;99.90;;;;;;5034394;28;20044;-88
2021/12/13 04:55:04;;;;;;;20.23;7.35;;;9.50;99.90;;;;;;5044437;28;20041;-88
2021/12/13 04:57:30;;;;;;;16.83;7.40;;;9.50;99.90;;;;;;5045366;28;20052;-87
2021/12/13 05:00:00;;;;;;;25.27;7.30;;;9.50;99.90;;;;;;5041950;28;20064;-88
2021/12/13 05:02:27;;;;;;;17.38;7.60;;;9.50;99.90;;;;;;5049532;28;20037;-88
2021/12/13 05:04:56;;;;;;;16.83;6.93;;;9.40;99.90;;;;;;5032700;28;20107;-88
2021/12/13 05:07:24;;;;;;;15.77;7.28;;;9.40;99.90;;;;;;5042892;28;20550;-88
2021/12/13 05:09:51;;;;;;;20.92;8.07;;;9.40;99.90;;;;;;5032175;28;20060;-88
2021/12/13 05:12:22;;;;;;;23.02;8.82;;;9.40;99.90;;;;;;5032505;28;20050;-88
2021/12/13 05:14:49;;;;;;;17.55;8.30;;;9.40;99.90;;;;;;5032362;28;20041;-88
2021/12/13 05:17:26;;;;;;;18.02;7.90;;;9.40;99.90;;;;;;5042816;28;20079;-86
2021/12/13 05:19:59;;;;;;;18.58;8.77;;;9.40;99.90;;;;;;5051244;28;20135;-87
2021/12/13 05:22:25;;;;;;;14.35;7.90;;;9.40;99.90;;;;;;5046207;28;20564;-88
2021/12/13 05:24:55;;;;;;;20.25;8.77;;;9.40;99.90;;;;;;5047311;28;20099;-88
2021/12/13 05:27:56;;;;;;;25.52;9.65;;;9.40;99.90;;;;;;5045135;28;20072;-87
2021/12/13 05:30:23;;;;;;;16.50;8.75;;;9.40;99.90;;;;;;5042821;28;20045;-88
2021/12/13 05:32:57;;;;;;;18.10;8.85;;;9.40;99.90;;;;;;5052818;28;20087;-88
2021/12/13 05:35:29;;;;;;;16.87;8.37;;;9.40;99.90;;;;;;5042428;28;20088;-88
2021/12/13 05:38:03;;;;;;;21.50;8.68;;;9.40;99.90;;;;;;5042987;28;20065;-88
2021/12/13 05:40:29;;;;;;;18.02;8.98;;;9.40;99.90;;;;;;5046419;28;20531;-88
2021/12/13 05:42:58;;;;;;;18.48;9.07;;;9.40;99.90;;;;;;5031469;28;20127;-89
2021/12/13 05:45:37;;;;;;;18.90;9.80;;;9.40;99.90;;;;;;5038006;28;20053;-88
2021/12/13 05:48:15;;;;;;;22.05;9.70;;;9.40;99.90;;;;;;5046002;28;20049;-88
2021/12/13 05:50:51;;;;;;;19.98;9.68;;;9.40;99.90;;;;;;5035033;28;20056;-87
2021/12/13 05:53:27;;;;;;;21.63;9.10;;;9.40;99.90;;;;;;5043439;28;20052;-89
2021/12/13 05:55:53;;;;;;;18.42;10.00;;;9.40;99.90;;;;;;5044009;28;20049;-87
2021/12/13 05:58:37;;;;;;;20.92;9.30;;;9.40;99.90;;;;;;5033073;28;20049;-87
2021/12/13 06:01:11;;;;;;;22.10;10.55;;;9.40;99.90;;;;;;5038738;28;20503;-88
2021/12/13 06:03:40;;;;;;;22.25;10.73;;;9.40;99.90;;;;;;5027459;28;20499;-88
2021/12/13 06:06:13;;;;;;;20.23;9.32;;;9.40;99.90;;;;;;5032172;28;20087;-88
2021/12/13 06:08:44;;;;;;;17.70;9.20;;;9.40;99.90;;;;;;5031506;28;20147;-85
2021/12/13 06:11:32;;;;;;;22.08;11.05;;;9.30;99.90;;;;;;5048172;28;20056;-89
2021/12/13 06:14:14;;;;;;;21.75;9.70;;;9.40;99.90;;;;;;5050204;28;20049;-88
2021/12/13 06:16:55;;;;;;;22.13;10.45;;;9.40;99.90;;;;;;5044364;28;20044;-88
2021/12/13 06:19:35;;;;;;;19.17;9.48;;;9.30;99.90;;;;;;5042766;28;20048;-88
2021/12/13 06:22:17;;;;;;;20.20;9.82;;;9.30;99.90;;;;;;5041287;28;20045;-87
2021/12/13 06:24:53;;;;;;;19.55;10.32;;;9.30;99.90;;;;;;5049821;28;20097;-89
2021/12/13 06:27:25;;;;;;;23.50;9.77;;;9.30;99.90;;;;;;5033134;28;20041;-87
2021/12/13 06:29:53;;;;;;;19.50;9.75;;;9.30;99.90;;;;;;5051928;28;20045;-88
2021/12/13 06:32:21;;;;;;;21.10;9.52;;;9.30;99.90;;;;;;5036599;28;20056;-78
2021/12/13 06:34:47;;;;;;;21.50;10.23;;;10.20;99.90;;;;;;5033331;28;20424;-78
2021/12/13 06:37:13;;;;;;;23.80;10.57;;;9.30;99.90;;;;;;5045829;28;20101;-78
2021/12/13 06:39:39;;;;;;;21.48;10.38;;;9.30;99.90;;;;;;5032195;28;20085;-78
2021/12/13 06:42:06;;;;;;;20.08;10.05;;;9.30;99.90;;;;;;5031491;28;20098;-77
2021/12/13 06:44:43;;;;;;;19.45;9.82;;;9.30;99.90;;;;;;5034204;28;20049;-78
2021/12/13 06:47:26;;;;;;;17.20;9.63;;;9.30;99.90;;;;;;5050182;28;20037;-78
2021/12/13 06:49:56;;;;;;;18.73;10.30;;;9.30;99.90;;;;;;5057554;28;20467;-78
2021/12/13 06:52:32;;;;;;;19.48;10.13;;;9.30;99.90;;;;;;5035874;28;20037;-78
2021/12/13 06:55:15;;;;;;;16.08;9.45;;;9.30;99.90;;;;;;5037462;28;20128;-77
2021/12/13 06:57:57;;;;;;;21.50;9.95;;;9.30;99.90;;;;;;5055631;28;20073;-78
2021/12/13 07:00:22;;;;;;;20.17;10.75;;;9.30;99.90;;;;;;5032275;28;20125;-78
2021/12/13 07:02:52;;;;;;;27.70;11.40;;;9.30;99.90;;;;;;5041972;28;20117;-78
2021/12/13 07:05:23;;;;;;;18.42;10.13;;;9.30;99.90;;;;;;5039372;28;20045;-78
2021/12/13 07:07:51;;;;;;;23.50;11.45;;;9.30;99.90;;;;;;5034578;28;20084;-81
2021/12/13 07:10:40;;;;;;;22.25;10.77;;;9.30;99.90;;;;;;5048642;28;20559;-81
2021/12/13 07:13:20;;;;;;;21.95;10.77;;;9.30;99.90;;;;;;5030281;28;20068;-82
2021/12/13 07:15:55;;;;;;;21.42;9.98;;;9.30;99.90;;;;;;5030813;28;20053;-81
2021/12/13 07:18:30;;;;;;;21.67;11.50;;;9.30;99.90;;;;;;5032682;28;20038;-81
2021/12/13 07:21:13;;;;;;;23.65;10.65;;;9.30;99.90;;;;;;5031731;28;20484;-80
2021/12/13 07:23:57;;;;;;;21.38;11.88;;;9.30;99.90;;;;;;5041780;28;20048;-80
2021/12/13 07:26:35;;;;;;;24.17;12.35;;;9.30;99.90;;;;;;5037180;28;20052;-83
2021/12/13 07:29:09;;;;;;;20.38;11.20;;;9.30;99.90;;;;;;5031517;28;20049;-82
2021/12/13 07:31:43;;;;;;;23.13;11.80;;;9.30;99.90;;;;;;5043692;28;20048;-81
2021/12/13 07:34:13;;;;;;;25.30;12.80;;;9.30;99.90;;;;;;5050640;28;20056;-82
2021/12/13 07:36:39;;;;;;;21.83;12.60;;;9.30;99.90;;;;;;5039581;28;20404;-80
2021/12/13 07:39:14;;;;;;;21.20;13.05;;;9.30;99.90;;;;;;5040325;28;20053;-80
2021/12/13 07:41:50;;;;;;;23.42;12.30;;;9.30;99.90;;;;;;5041506;28;20049;-80
2021/12/13 07:44:31;;;;;;;21.90;12.98;;;9.30;99.90;;;;;;5061897;28;20080;-80
2021/12/13 07:47:08;;;;;;;29.30;14.30;;;9.30;99.90;;;;;;5043692;28;20438;-83
2021/12/13 07:49:37;;;;;;;25.20;14.00;;;9.30;99.90;;;;;;5037293;28;20572;-82
2021/12/13 07:52:05;;;;;;;30.10;15.45;;;9.30;99.90;;;;;;5036822;28;20037;-83
2021/12/13 07:54:39;;;;;;;25.67;13.75;;;9.30;99.90;;;;;;5049109;28;20510;-80
2021/12/13 07:57:19;;;;;;;24.75;15.10;;;9.30;99.90;;;;;;5046071;28;20103;-80
2021/12/13 07:59:46;;;;;;;28.42;15.75;;;9.30;99.90;;;;;;5037258;28;20045;-79
2021/12/13 08:02:30;;;;;;;27.27;15.57;;;9.30;99.90;;;;;;5032382;28;20049;-79
2021/12/13 08:05:13;;;;;;;29.13;15.67;;;9.30;99.90;;;;;;5031431;28;21848;-79
2021/12/13 08:08:01;;;;;;;30.00;16.73;;;9.30;99.90;;;;;;5028235;28;20342;-79
2021/12/13 08:10:38;;;;;;;28.75;17.00;;;9.30;99.90;;;;;;5035193;28;20695;-79
2021/12/13 08:13:09;;;;;;;29.00;16.15;;;9.30;99.90;;;;;;5035042;28;20056;-79
2021/12/13 08:15:48;;;;;;;31.73;18.42;;;9.40;99.90;;;;;;5036738;28;20132;-79
2021/12/13 08:18:34;;;;;;;34.30;18.20;;;9.30;99.90;;;;;;5027745;28;20554;-78
2021/12/13 08:21:20;;;;;;;28.67;17.02;;;9.30;99.90;;;;;;5035945;28;20061;-79
2021/12/13 08:23:49;;;;;;;31.42;17.98;;;9.30;99.90;;;;;;5034969;28;20098;-78
2021/12/13 08:26:32;;;;;;;33.75;17.90;;;9.30;99.90;;;;;;5036577;28;20033;-79
2021/12/13 08:29:00;;;;;;;32.30;18.08;;;9.30;99.90;;;;;;5049187;28;20049;-79
2021/12/13 08:31:30;;;;;;;29.70;18.00;;;9.30;99.90;;;;;;5038590;28;20059;-78
2021/12/13 08:34:03;;;;;;;36.55;19.73;;;9.30;99.90;;;;;;5040334;28;20053;-79
2021/12/13 08:36:32;;;;;;;33.08;19.95;;;9.30;99.90;;;;;;5040703;28;20106;-79
2021/12/13 08:39:09;;;;;;;32.53;19.42;;;9.30;99.90;;;;;;5033231;28;20392;-79
2021/12/13 08:41:40;;;;;;;34.08;20.20;;;9.30;99.90;;;;;;5039316;28;20124;-79
2021/12/13 08:44:12;;;;;;;32.97;22.35;;;9.30;99.90;;;;;;5041405;28;20539;-79
2021/12/13 08:46:43;;;;;;;39.10;21.58;;;9.30;99.90;;;;;;5040132;28;20049;-79
2021/12/13 08:49:30;;;;;;;37.15;22.25;;;9.30;99.90;;;;;;5030595;28;20044;-78
2021/12/13 08:52:21;;;;;;;37.17;20.63;;;9.30;99.90;;;;;;5039462;28;20049;-78
2021/12/13 08:55:10;;;;;;;31.15;20.05;;;9.30;99.90;;;;;;5041960;28;20045;-78
2021/12/13 08:58:14;;;;;;;36.78;21.30;;;9.30;99.90;;;;;;5047458;28;20052;-78
2021/12/13 09:00:53;;;;;;;36.78;21.33;;;9.30;99.90;;;;;;5039349;28;20063;-79
2021/12/13 09:03:24;;;;;;;40.15;23.15;;;9.40;99.90;;;;;;5036307;28;20063;-78
2021/12/13 09:05:52;;;;;;;40.88;22.30;;;9.40;99.90;;;;;;5037567;28;20488;-78
2021/12/13 09:08:26;;;;;;;39.33;23.25;;;9.40;99.90;;;;;;5032439;28;20037;-79
2021/12/13 09:11:00;;;;;;;34.20;20.00;;;9.40;99.90;;;;;;5039544;28;20071;-79
2021/12/13 09:13:57;;;;;;;37.55;21.83;;;9.40;99.90;;;;;;5038955;28;20041;-79
2021/12/13 09:16:28;;;;;;;36.25;21.75;;;9.40;99.90;;;;;;5037898;28;20060;-77
2021/12/13 09:19:14;;;;;;;37.20;22.25;;;9.40;99.90;;;;;;5030518;28;20049;-76
2021/12/13 09:22:08;;;;;;;36.20;22.00;;;9.40;99.90;;;;;;5046734;28;20056;-77
2021/12/13 09:24:45;;;;;;;42.90;23.15;;;9.40;99.90;;;;;;5031199;28;20053;-77
2021/12/13 09:27:24;;;;;;;40.95;22.38;;;9.50;99.90;;;;;;5035049;28;20044;-77
2021/12/13 09:29:53;;;;;;;36.05;21.17;;;9.50;99.90;;;;;;5037416;28;20055;-80
2021/12/13 09:32:23;;;;;;;37.25;20.85;;;9.50;99.90;;;;;;5039967;28;20068;-77
2021/12/13 09:34:53;;;;;;;38.53;22.63;;;9.50;99.90;;;;;;5039115;28;20168;-73
2021/12/13 09:37:19;;;;;;;38.78;21.70;;;9.50;99.90;;;;;;5035192;28;20051;-73
2021/12/13 09:39:58;;;;;;;38.90;20.75;;;9.60;99.90;;;;;;5035058;28;20032;-75
2021/12/13 09:42:24;;;;;;;35.13;20.42;;;9.60;99.90;;;;;;5055415;28;20146;-75
2021/12/13 09:44:58;;;;;;;32.33;20.75;;;9.60;99.90;;;;;;5037488;28;20555;-75
2021/12/13 09:47:37;;;;;;;34.90;21.92;;;9.60;99.90;;;;;;5033107;28;20033;-75
2021/12/13 09:50:18;;;;;;;32.55;19.63;;;9.60;99.90;;;;;;5032500;28;20527;-75
2021/12/13 09:52:56;;;;;;;34.83;19.13;;;9.70;99.90;;;;;;5052580;28;20057;-76
2021/12/13 09:55:30;;;;;;;31.58;19.92;;;9.70;99.90;;;;;;5038326;28;20083;-75
2021/12/13 09:58:03;;;;;;;31.35;19.80;;;9.70;99.90;;;;;;5033191;28;20792;-76
2021/12/13 10:00:38;;;;;;;35.00;21.53;;;9.70;99.90;;;;;;5037082;28;20083;-76
2021/12/13 10:03:12;;;;;;;30.77;19.88;;;9.70;99.90;;;;;;5040319;28;20304;-77
2021/12/13 10:05:42;;;;;;;30.92;18.88;;;9.70;99.90;;;;;;5039802;28;20072;-78
2021/12/13 10:08:22;;;;;;;26.08;16.80;;;9.70;99.90;;;;;;5033794;28;20046;-77
2021/12/13 10:10:53;;;;;;;31.48;19.02;;;9.70;99.90;;;;;;5037048;28;20057;-77
2021/12/13 10:13:23;;;;;;;31.42;18.25;;;9.70;99.90;;;;;;5037792;28;20061;-77
2021/12/13 10:15:53;;;;;;;29.50;17.98;;;9.70;99.90;;;;;;5038193;28;20049;-78
2021/12/13 10:18:25;;;;;;;29.77;17.70;;;9.70;99.90;;;;;;5033823;28;20044;-78
2021/12/13 10:21:02;;;;;;;25.17;16.77;;;9.70;99.90;;;;;;5038585;28;20044;-78
2021/12/13 10:23:32;;;;;;;26.60;16.83;;;9.70;99.90;;;;;;5040455;28;20518;-78
2021/12/13 10:26:01;;;;;;;27.55;17.42;;;9.80;99.90;;;;;;5036574;28;20041;-77
2021/12/13 10:28:34;;;;;;;27.67;17.52;;;9.80;99.90;;;;;;5030869;28;20056;-78
2021/12/13 10:31:09;;;;;;;24.85;16.38;;;9.80;99.90;;;;;;5037228;28;20771;-77
2021/12/13 10:33:37;;;;;;;26.73;16.60;;;9.80;99.90;;;;;;5035449;28;20057;-77
2021/12/13 10:36:04;;;;;;;28.13;17.40;;;9.80;99.90;;;;;;5036715;28;20490;-77
2021/12/13 10:38:40;;;;;;;26.65;17.10;;;9.80;99.90;;;;;;5045889;28;20055;-78
2021/12/13 10:41:15;;;;;;;33.13;17.15;;;9.80;99.90;;;;;;5037458;28;20135;-78
2021/12/13 10:43:51;;;;;;;23.70;15.05;;;9.80;99.90;;;;;;5035400;28;20053;-77
2021/12/13 10:46:23;;;;;;;25.90;15.48;;;9.80;99.90;;;;;;5035448;28;20041;-78
2021/12/13 10:48:53;;;;;;;25.20;15.65;;;9.80;99.90;;;;;;5025357;28;20044;-77
2021/12/13 10:51:27;;;;;;;28.58;15.20;;;9.80;99.90;;;;;;5032857;28;20095;-78
2021/12/13 10:53:55;;;;;;;24.98;15.18;;;9.80;99.90;;;;;;5036657;28;20041;-78
2021/12/13 10:56:31;;;;;;;27.88;16.10;;;9.80;99.90;;;;;;5037756;28;20120;-77
2021/12/13 10:59:01;;;;;;;23.45;14.15;;;9.90;99.90;;;;;;5046769;28;20045;-77
2021/12/13 11:01:32;;;;;;;23.40;14.95;;;9.90;99.90;;;;;;5037002;28;20053;-78
2021/12/13 11:04:02;;;;;;;24.90;14.60;;;9.90;99.90;;;;;;5034684;28;20057;-78
2021/12/13 11:06:29;;;;;;;21.60;14.38;;;10.00;99.90;;;;;;5040166;28;20043;-78
2021/12/13 11:08:55;;;;;;;25.38;14.88;;;10.00;99.90;;;;;;5029985;28;20052;-78
2021/12/13 11:11:28;;;;;;;22.67;13.00;;;10.00;99.90;;;;;;5038180;28;20114;-76
2021/12/13 11:14:00;;;;;;;25.60;14.02;;;10.00;99.90;;;;;;5034682;28;20063;-77
2021/12/13 11:16:34;;;;;;;24.48;14.93;;;10.10;99.90;;;;;;5038701;28;20055;-78
2021/12/13 11:19:03;;;;;;;22.25;14.45;;;10.10;99.90;;;;;;5028786;28;20076;-76
2021/12/13 11:21:33;;;;;;;24.13;13.60;;;10.10;99.90;;;;;;5036245;28;20178;-78
2021/12/13 11:23:59;;;;;;;24.73;13.23;;;10.10;99.90;;;;;;5035675;28;20056;-83
2021/12/13 11:26:31;;;;;;;24.00;13.30;;;10.10;99.90;;;;;;5037856;28;20033;-83
2021/12/13 11:28:59;;;;;;;21.42;13.23;;;10.10;99.90;;;;;;5046335;28;20053;-79
2021/12/13 11:31:30;;;;;;;27.40;13.73;;;10.10;99.90;;;;;;5038763;28;20052;-83
2021/12/13 11:34:02;;;;;;;25.38;14.77;;;10.10;99.90;;;;;;5034943;28;20080;-83
2021/12/13 11:37:14;;;;;;;23.85;13.60;;;10.10;99.90;;;;;;5033554;28;20488;-82
2021/12/13 11:39:56;;;;;;;22.98;12.80;;;10.10;99.90;;;;;;5032055;28;20053;-81
2021/12/13 11:42:47;;;;;;;23.38;13.75;;;10.10;99.90;;;;;;5035826;28;20044;-82
2021/12/13 11:45:12;;;;;;;24.83;14.20;;;10.20;99.90;;;;;;5034886;28;20060;-81
2021/12/13 11:48:06;;;;;;;25.45;13.93;;;10.20;99.90;;;;;;5029454;28;20045;-84
2021/12/13 11:51:20;;;;;;;27.98;13.68;;;10.20;99.90;;;;;;5048396;28;20055;-83
2021/12/13 11:54:10;;;;;;;25.35;13.57;;;10.20;99.90;;;;;;5000984;28;20847;-82
2021/12/13 11:57:13;;;;;;;23.02;13.10;;;10.20;99.90;;;;;;5036780;28;20049;-84
2021/12/13 12:00:02;;;;;;;22.95;12.38;;;10.80;99.90;;;;;;5034950;28;20488;-84
2021/12/13 12:03:06;;;;;;;24.90;14.15;;;10.30;99.90;;;;;;5034755;28;20103;-81
2021/12/13 12:05:50;;;;;;;26.10;12.73;;;10.30;99.90;;;;;;5034649;28;20083;-81
2021/12/13 12:08:44;;;;;;;23.70;13.68;;;10.30;99.90;;;;;;5025985;28;20118;-80
2021/12/13 12:11:47;;;;;;;21.92;12.13;;;10.20;99.90;;;;;;5052343;28;20099;-80
2021/12/13 12:14:16;;;;;;;22.27;13.52;;;10.30;99.90;;;;;;5037292;28;20140;-81
2021/12/13 12:16:47;;;;;;;24.13;13.57;;;10.30;99.90;;;;;;5034895;28;20057;-80
2021/12/13 12:19:25;;;;;;;22.92;12.85;;;10.30;99.90;;;;;;5028008;28;20246;-81
2021/12/13 12:21:59;;;;;;;26.05;14.13;;;10.30;99.90;;;;;;5035770;28;20045;-80
2021/12/13 12:24:33;;;;;;;23.15;13.23;;;10.30;99.90;;;;;;5037417;28;20073;-80
2021/12/13 12:27:11;;;;;;;24.70;12.85;;;10.40;99.90;;;;;;5035479;28;20076;-80
2021/12/13 12:29:45;;;;;;;23.55;13.98;;;10.40;99.90;;;;;;5030464;28;20064;-79
2021/12/13 12:32:20;;;;;;;21.25;13.07;;;10.40;99.90;;;;;;5035009;28;20570;-81
2021/12/13 12:35:03;;;;;;;22.85;13.63;;;10.40;99.90;;;;;;5039055;28;20048;-80
2021/12/13 12:37:49;;;;;;;20.80;12.20;;;10.40;99.90;;;;;;5026337;28;20052;-80
2021/12/13 12:40:28;;;;;;;20.40;12.05;;;10.40;99.90;;;;;;5034263;28;20127;-79
2021/12/13 12:43:00;;;;;;;20.10;12.73;;;10.40;99.90;;;;;;5034770;28;20056;-79
2021/12/13 12:45:26;;;;;;;24.02;13.32;;;10.40;99.90;;;;;;5030864;28;20053;-80
2021/12/13 12:48:09;;;;;;;25.95;13.90;;;10.40;99.90;;;;;;5030251;28;20052;-79
2021/12/13 12:50:49;;;;;;;26.23;13.48;;;10.40;99.90;;;;;;5037562;28;21621;-79
2021/12/13 12:53:46;;;;;;;23.08;13.55;;;10.40;99.90;;;;;;5036797;28;20075;-78
2021/12/13 12:56:29;;;;;;;25.65;13.55;;;10.40;99.90;;;;;;5029958;28;20148;-78
2021/12/13 12:58:57;;;;;;;27.30;13.60;;;10.40;99.90;;;;;;5027428;28;20041;-80
2021/12/13 13:01:42;;;;;;;27.17;15.95;;;10.30;99.90;;;;;;5051210;28;20145;-80
2021/12/13 13:04:17;;;;;;;26.77;15.32;;;10.30;99.90;;;;;;5035657;28;20049;-80
2021/12/13 13:07:06;;;;;;;30.05;17.20;;;10.30;99.90;;;;;;5034877;28;20052;-80
2021/12/13 13:10:02;;;;;;;30.85;16.95;;;10.20;99.90;;;;;;5028462;28;20053;-80
2021/12/13 13:12:28;;;;;;;34.08;18.45;;;10.20;99.90;;;;;;5051302;28;20057;-76
2021/12/13 13:15:11;;;;;;;32.58;20.13;;;10.10;99.90;;;;;;5036653;28;20048;-78
2021/12/13 13:17:41;;;;;;;36.25;18.95;;;10.10;99.90;;;;;;5033549;28;20530;-78
2021/12/13 13:20:15;;;;;;;34.13;18.38;;;10.00;99.90;;;;;;5036740;28;20053;-78
2021/12/13 13:22:44;;;;;;;35.13;18.52;;;10.00;99.90;;;;;;5040340;28;20049;-76